createdAt,value
2023-05-22T00:03:21.990Z,41.7
2023-05-22T00:09:13.449Z,41.7
2023-05-22T00:14:48.819Z,41.6
2023-05-22T00:20:41.529Z,41.7
2023-05-22T00:26:33.212Z,41.6
2023-05-22T00:32:24.332Z,41.6
2023-05-22T00:38:15.956Z,41.6
2023-05-22T00:44:08.054Z,41.6
2023-05-22T00:49:59.538Z,41.6
2023-05-22T00:55:50.755Z,41.6
2023-05-22T01:01:42.563Z,41.6
2023-05-22T01:07:34.925Z,41.5
2023-05-22T01:13:26.742Z,41.5
2023-05-22T01:19:18.699Z,41.5
2023-05-22T01:25:10.473Z,41.4
2023-05-22T01:31:02.168Z,41.4
2023-05-22T01:36:54.155Z,41.4
2023-05-22T01:42:45.245Z,41.4
2023-05-22T01:48:37.799Z,41.4
2023-05-22T01:54:28.669Z,41.4
2023-05-22T02:00:19.894Z,41.3
2023-05-22T02:06:13.759Z,41.3
2023-05-22T02:12:05.382Z,41.3
2023-05-22T02:17:56.963Z,41.3
2023-05-22T02:23:33.872Z,41.3
2023-05-22T02:29:25.590Z,41.3
2023-05-22T02:35:17.477Z,41.2
2023-05-22T02:41:09.491Z,41.2
2023-05-22T02:47:01.182Z,41.2
2023-05-22T02:52:52.408Z,41.1
2023-05-22T02:58:44.165Z,41.1
2023-05-22T03:04:36.367Z,41.1
2023-05-22T03:10:27.862Z,41.1
2023-05-22T03:16:19.781Z,41.1
2023-05-22T03:22:11.777Z,41
2023-05-22T03:28:02.530Z,41
2023-05-22T03:33:55.299Z,40.9
2023-05-22T03:39:31.584Z,40.9
2023-05-22T03:45:24.336Z,40.9
2023-05-22T03:51:01.276Z,40.9
2023-05-22T03:56:55.012Z,40.9
2023-05-22T04:02:45.729Z,40.9
2023-05-22T04:08:37.824Z,40.9
2023-05-22T04:14:30.255Z,40.8
2023-05-22T04:20:21.050Z,40.8
2023-05-22T04:26:12.793Z,40.8
2023-05-22T04:31:49.150Z,40.8
2023-05-22T04:37:25.010Z,40.8
2023-05-22T04:43:18.752Z,40.7
2023-05-22T04:49:10.707Z,40.7
2023-05-22T04:55:02.768Z,40.7
2023-05-22T05:01:06.781Z,40.6
2023-05-22T05:06:59.956Z,40.6
2023-05-22T05:12:52.091Z,40.6
2023-05-22T05:18:44.734Z,40.6
2023-05-22T05:24:23.692Z,40.6
2023-05-22T05:30:14.487Z,40.5
2023-05-22T05:36:06.409Z,40.5
2023-05-22T05:41:42.388Z,40.5
2023-05-22T05:47:34.037Z,40.4
2023-05-22T05:53:25.223Z,40.4
2023-05-22T05:59:17.834Z,40.4
2023-05-22T06:05:11.338Z,40.4
2023-05-22T06:10:48.084Z,40.4
2023-05-22T06:16:40.635Z,40.3
2023-05-22T06:22:32.689Z,39.8
2023-05-22T06:28:24.201Z,39.7
2023-05-22T06:34:37.137Z,39.6
2023-05-22T06:40:28.605Z,39.6
2023-05-22T06:46:20.548Z,39.6
2023-05-22T06:52:13.145Z,39.6
2023-05-22T06:58:05.088Z,39.5
2023-05-22T07:03:57.743Z,39.5
2023-05-22T07:09:52.916Z,39.4
2023-05-22T07:15:46.442Z,39.4
2023-05-22T07:21:40.542Z,39.4
2023-05-22T07:27:33.031Z,39.4
2023-05-22T07:33:25.257Z,39.4
2023-05-22T07:39:17.832Z,39.3
2023-05-22T07:45:12.259Z,39.3
2023-05-22T07:51:04.528Z,39.3
2023-05-22T07:56:58.622Z,39.3
2023-05-22T08:02:50.583Z,39.3
2023-05-22T08:08:31.748Z,39.3
2023-05-22T08:14:48.320Z,39.2
2023-05-22T08:20:48.709Z,39.2
2023-05-22T08:26:25.520Z,39.2
2023-05-22T08:32:18.680Z,39.1
2023-05-22T08:38:11.500Z,39.1
2023-05-22T08:44:05.329Z,39.1
2023-05-22T08:49:57.345Z,39
2023-05-22T08:55:49.841Z,39.1
2023-05-22T09:01:48.328Z,39.2
2023-05-22T09:07:44.016Z,40.3
2023-05-22T09:13:48.756Z,41.1
2023-05-22T09:19:42.278Z,41.1
2023-05-22T09:25:48.359Z,41.1
2023-05-22T09:31:41.183Z,41.1
2023-05-22T09:37:34.006Z,41.1
2023-05-22T09:43:26.712Z,41.1
2023-05-22T09:49:22.327Z,41
2023-05-22T09:55:14.081Z,41
2023-05-22T10:01:23.980Z,41
2023-05-22T10:07:19.160Z,40.9
2023-05-22T10:13:15.848Z,40.9
2023-05-22T10:19:10.278Z,40.8
2023-05-22T10:25:06.339Z,40.8
2023-05-22T10:30:44.197Z,40.8
2023-05-22T10:36:38.812Z,40.8
2023-05-22T10:42:42.214Z,40.8
2023-05-22T10:54:15.553Z,40.7
2023-05-22T11:00:09.277Z,40.6
2023-05-22T11:06:13.782Z,40.6
2023-05-22T11:12:08.792Z,40.6
2023-05-22T11:18:07.818Z,40.6
2023-05-22T11:24:10.755Z,40.5
2023-05-22T11:30:34.439Z,40.5
2023-05-22T11:36:13.034Z,40.4
2023-05-22T11:42:07.068Z,40.4
2023-05-22T11:48:01.856Z,40.4
2023-05-22T11:54:06.585Z,40.4
2023-05-22T12:00:01.978Z,40.4
2023-05-22T12:06:01.862Z,40.3
2023-05-22T12:11:58.069Z,40.3
2023-05-22T12:23:33.152Z,40.3
2023-05-22T12:29:30.019Z,40.2
2023-05-22T12:35:24.844Z,40.2
2023-05-22T12:41:04.137Z,40.1
2023-05-22T12:46:59.764Z,40.1
2023-05-22T12:52:43.163Z,40.1
2023-05-22T12:58:38.259Z,40.1
2023-05-22T13:04:33.736Z,40.1
2023-05-22T13:10:13.178Z,40
2023-05-22T13:16:14.710Z,40
2023-05-22T13:22:17.457Z,39.9
2023-05-22T13:28:18.043Z,39.9
2023-05-22T13:34:00.405Z,39.9
2023-05-22T13:39:58.283Z,39.9
2023-05-22T13:45:54.503Z,39.8
2023-05-22T13:51:34.856Z,39.8
2023-05-22T13:57:28.316Z,39.8
2023-05-22T14:08:31.047Z,39.7
2023-05-22T14:14:08.418Z,39.7
2023-05-22T14:19:45.803Z,39.6
2023-05-22T14:25:49.590Z,39.6
2023-05-22T14:31:42.757Z,39.6
2023-05-22T14:37:20.265Z,39.6
2023-05-22T14:42:41.263Z,39.5
2023-05-22T14:48:34.713Z,39.5
2023-05-22T14:54:40.141Z,39.5
2023-05-22T15:00:32.893Z,39.4
2023-05-22T15:06:27.565Z,39.4
2023-05-22T15:12:29.271Z,39.4
2023-05-22T15:18:21.719Z,39.4
2023-05-22T15:24:28.230Z,39.3
2023-05-22T15:30:22.254Z,39.3
2023-05-22T15:36:14.925Z,39.3
2023-05-22T15:42:18.929Z,39.3
2023-05-22T15:48:12.643Z,39.2
2023-05-22T15:54:05.394Z,39.2
2023-05-22T16:00:00.766Z,39.1
2023-05-22T16:11:33.414Z,39.1
2023-05-22T16:17:30.716Z,39.1
2023-05-22T16:23:36.561Z,39.1
2023-05-22T16:29:31.984Z,39
2023-05-22T16:35:26.187Z,38.9
2023-05-22T16:41:02.643Z,38.9
2023-05-22T16:46:57.443Z,38.9
2023-05-22T16:52:50.355Z,38.9
2023-05-22T16:58:42.595Z,38.9
2023-05-22T17:04:36.497Z,38.8
2023-05-22T17:10:14.098Z,38.8
2023-05-22T17:16:06.630Z,38.8
2023-05-22T17:22:01.962Z,38.8
2023-05-22T17:27:51.977Z,38.7
2023-05-22T17:33:29.388Z,38.7
2023-05-22T17:39:21.365Z,38.6
2023-05-22T17:45:29.734Z,38.6
2023-05-22T17:51:22.547Z,38.6
2023-05-22T17:57:00.761Z,38.6
2023-05-22T18:08:19.020Z,38.5
2023-05-22T18:14:26.901Z,38.5
2023-05-22T18:20:20.221Z,38.4
2023-05-22T18:31:33.557Z,38.4
2023-05-22T18:37:27.644Z,38.4
2023-05-22T18:43:19.675Z,38.3
2023-05-22T18:49:12.606Z,38.3
2023-05-22T18:55:05.144Z,38.3
2023-05-22T19:00:58.384Z,38.3
2023-05-22T19:11:30.852Z,38.2
2023-05-22T19:17:08.239Z,38.1
2023-05-22T19:22:29.725Z,38.1
2023-05-22T19:27:38.114Z,38.1
2023-05-22T19:33:17.240Z,38.1
2023-05-22T19:39:10.277Z,38
2023-05-22T19:45:03.013Z,38
2023-05-22T19:50:41.242Z,37.9
2023-05-22T19:56:33.452Z,37.9
2023-05-22T20:02:27.459Z,37.9
2023-05-22T20:07:49.807Z,37.9
2023-05-22T20:13:26.470Z,37.9
2023-05-22T20:19:04.308Z,37.8
2023-05-22T20:24:57.290Z,37.8
2023-05-22T20:30:49.631Z,37.8
2023-05-22T20:36:43.325Z,37.8
2023-05-22T20:42:36.123Z,37.7
2023-05-22T20:48:28.616Z,37.7
2023-05-22T20:54:05.647Z,37.7
2023-05-22T20:59:57.342Z,37.6
2023-05-22T21:05:50.648Z,37.6
2023-05-22T21:11:44.810Z,37.6
2023-05-22T21:17:37.585Z,37.6
2023-05-22T21:23:30.405Z,37.6
2023-05-22T21:29:23.212Z,37.5
2023-05-22T21:35:16.733Z,37.5
2023-05-22T21:41:09.172Z,37.4
2023-05-22T21:46:59.127Z,37.4
2023-05-22T21:52:53.016Z,37.4
2023-05-22T21:58:45.103Z,37.4
2023-05-22T22:04:38.961Z,37.4
2023-05-22T22:10:31.438Z,37.3
2023-05-22T22:16:23.856Z,37.3
2023-05-22T22:22:30.058Z,37.3
2023-05-22T22:28:22.240Z,37.3
2023-05-22T22:34:14.774Z,37.3
2023-05-22T22:40:07.224Z,37.2
2023-05-22T22:45:48.392Z,37.2
2023-05-22T22:51:25.443Z,37.2
2023-05-22T22:57:19.622Z,37.1
2023-05-22T23:03:11.964Z,37.1
2023-05-22T23:09:05.063Z,37.1
2023-05-22T23:14:58.228Z,37.1
2023-05-22T23:20:50.618Z,37.1
2023-05-22T23:31:51.507Z,36.9
2023-05-22T23:37:27.867Z,36.9
2023-05-22T23:43:04.521Z,36.9
2023-05-22T23:48:41.631Z,36.9
2023-05-22T23:54:33.359Z,36.9
